createdAt,value
2022-09-14T00:00:09.313Z,21.856
2022-09-14T00:01:24.896Z,21.85
2022-09-14T00:02:08.737Z,21.862
2022-09-14T00:03:09.255Z,21.867
2022-09-14T00:04:07.843Z,21.8683
2022-09-14T00:05:09.047Z,21.8683
2022-09-14T00:06:08.818Z,21.884
2022-09-14T00:07:10.355Z,21.885
2022-09-14T00:08:08.060Z,21.9
2022-09-14T00:09:08.687Z,21.895
2022-09-14T00:10:08.663Z,21.915
2022-09-14T00:11:11.484Z,21.89
2022-09-14T00:12:08.289Z,21.92
2022-09-14T00:13:11.886Z,21.895
2022-09-14T00:14:07.293Z,21.8791
2022-09-14T00:15:09.027Z,21.834
2022-09-14T00:16:08.243Z,21.78
2022-09-14T00:17:08.815Z,21.73
2022-09-14T00:18:08.267Z,21.699
2022-09-14T00:19:07.428Z,21.666
2022-09-14T00:20:08.655Z,21.626
2022-09-14T00:21:12.104Z,21.6316
2022-09-14T00:22:12.256Z,21.605
2022-09-14T00:23:11.894Z,21.605
2022-09-14T00:24:07.531Z,21.605
2022-09-14T00:25:11.943Z,21.61
2022-09-14T00:26:09.077Z,21.6
2022-09-14T00:27:11.525Z,21.6
2022-09-14T00:28:08.548Z,21.62
2022-09-14T00:29:07.556Z,21.615
2022-09-14T00:30:10.933Z,21.62
2022-09-14T00:31:09.246Z,21.61
2022-09-14T00:32:11.573Z,21.59
2022-09-14T00:33:09.201Z,21.6
2022-09-14T00:34:07.878Z,21.58
2022-09-14T00:35:11.833Z,21.585
2022-09-14T00:36:11.297Z,21.595
2022-09-14T00:37:09.104Z,21.6
2022-09-14T00:38:09.359Z,21.615
2022-09-14T00:39:09.784Z,21.632
2022-09-14T00:40:11.266Z,21.637
2022-09-14T00:41:10.350Z,21.66
2022-09-14T00:42:08.803Z,21.6841
2022-09-14T00:43:08.924Z,21.671
2022-09-14T00:44:08.064Z,21.683
2022-09-14T00:45:09.066Z,21.705
2022-09-14T00:46:07.973Z,21.735
2022-09-14T00:47:10.469Z,21.72
2022-09-14T00:48:10.966Z,21.73
2022-09-14T00:49:09.594Z,21.735
2022-09-14T00:50:08.640Z,21.745
2022-09-14T00:51:08.739Z,21.745
2022-09-14T00:52:09.260Z,21.75
2022-09-14T00:53:08.158Z,21.76
2022-09-14T00:54:08.293Z,21.745
2022-09-14T00:55:09.286Z,21.755
2022-09-14T00:56:07.888Z,21.755
2022-09-14T00:57:11.066Z,21.77
2022-09-14T00:58:08.764Z,21.771
2022-09-14T00:59:08.599Z,21.75
2022-09-14T01:00:09.148Z,21.739
2022-09-14T01:01:08.388Z,21.755
2022-09-14T01:02:08.495Z,21.7315
2022-09-14T01:03:08.477Z,21.75
2022-09-14T01:04:07.785Z,21.77
2022-09-14T01:05:08.916Z,21.755
2022-09-14T01:06:08.865Z,21.76
2022-09-14T01:07:09.734Z,21.75
2022-09-14T01:08:08.724Z,21.75
2022-09-14T01:09:11.055Z,21.755
2022-09-14T01:10:08.539Z,21.78
2022-09-14T01:11:11.151Z,21.765
2022-09-14T01:12:10.863Z,21.73
2022-09-14T01:13:08.707Z,21.72
2022-09-14T01:14:07.248Z,21.7
2022-09-14T01:15:08.878Z,21.649
2022-09-14T01:16:08.698Z,21.62
2022-09-14T01:17:07.863Z,21.595
2022-09-14T01:18:09.288Z,21.58
2022-09-14T01:19:08.167Z,21.57
2022-09-14T01:20:09.121Z,21.555
2022-09-14T01:21:09.031Z,21.545
2022-09-14T01:22:10.601Z,21.525
2022-09-14T01:23:08.357Z,21.535
2022-09-14T01:24:07.364Z,21.5
2022-09-14T01:25:09.215Z,21.485
2022-09-14T01:26:11.584Z,21.48
2022-09-14T01:27:08.661Z,21.45
2022-09-14T01:28:08.373Z,21.445
2022-09-14T01:29:08.012Z,21.43
2022-09-14T01:30:10.816Z,21.44
2022-09-14T01:31:11.860Z,21.44
2022-09-14T01:32:08.970Z,21.44
2022-09-14T01:33:08.601Z,21.425
2022-09-14T01:34:10.102Z,21.435
2022-09-14T01:35:08.637Z,21.445
2022-09-14T01:36:08.527Z,21.445
2022-09-14T01:37:08.646Z,21.43
2022-09-14T01:38:08.225Z,21.445
2022-09-14T01:39:08.358Z,21.455
2022-09-14T01:40:08.466Z,21.455
2022-09-14T01:41:11.191Z,21.445
2022-09-14T01:42:10.702Z,21.47
2022-09-14T01:43:11.194Z,21.47
2022-09-14T01:44:09.272Z,21.495
2022-09-14T01:45:08.779Z,21.485
2022-09-14T01:46:11.108Z,21.49
2022-09-14T01:47:10.515Z,21.5
2022-09-14T01:48:08.104Z,21.535
2022-09-14T01:49:08.489Z,21.54
2022-09-14T01:50:08.918Z,21.545
2022-09-14T01:51:08.611Z,21.565
2022-09-14T01:52:08.549Z,21.57
2022-09-14T01:53:08.690Z,21.585
2022-09-14T01:54:07.912Z,21.595
2022-09-14T01:55:09.352Z,21.565
2022-09-14T01:56:07.691Z,21.55
2022-09-14T01:57:08.607Z,21.525
2022-09-14T01:58:10.004Z,21.545
2022-09-14T01:59:09.677Z,21.56
2022-09-14T02:00:09.141Z,21.55
2022-09-14T02:01:08.919Z,21.56
2022-09-14T02:02:09.318Z,21.55
2022-09-14T02:03:08.151Z,21.545
2022-09-14T02:04:07.801Z,21.555
2022-09-14T02:05:08.500Z,21.55
2022-09-14T02:06:08.570Z,21.54
2022-09-14T02:07:11.929Z,21.555
2022-09-14T02:08:11.892Z,21.53
2022-09-14T02:09:08.902Z,21.56
2022-09-14T02:10:08.263Z,21.56
2022-09-14T02:11:10.926Z,21.56
2022-09-14T02:12:08.444Z,21.575
2022-09-14T02:13:08.884Z,21.58
2022-09-14T02:14:07.850Z,21.585
2022-09-14T02:15:08.797Z,21.59
2022-09-14T02:16:09.601Z,21.595
2022-09-14T02:17:09.265Z,21.585
2022-09-14T02:18:10.988Z,21.61
2022-09-14T02:19:10.115Z,21.595
2022-09-14T02:20:08.842Z,21.595
2022-09-14T02:21:09.197Z,21.595
2022-09-14T02:22:08.654Z,21.605
2022-09-14T02:23:11.425Z,21.605
2022-09-14T02:24:07.576Z,21.615
2022-09-14T02:25:08.662Z,21.637
2022-09-14T02:26:08.861Z,21.643
2022-09-14T02:27:09.514Z,21.6258
2022-09-14T02:28:08.693Z,21.6258
2022-09-14T02:29:07.888Z,21.6327
2022-09-14T02:30:09.103Z,21.6316
2022-09-14T02:31:09.243Z,21.637
2022-09-14T02:32:08.137Z,21.6263
2022-09-14T02:33:09.052Z,21.6307
2022-09-14T02:34:08.083Z,21.649
2022-09-14T02:35:08.752Z,21.6327
2022-09-14T02:36:11.551Z,21.657
2022-09-14T02:37:09.006Z,21.664
2022-09-14T02:38:08.921Z,21.66
2022-09-14T02:39:07.619Z,21.677
2022-09-14T02:40:09.783Z,21.657
2022-09-14T02:41:09.222Z,21.658
2022-09-14T02:42:08.593Z,21.672
2022-09-14T02:43:08.988Z,21.683
2022-09-14T02:44:07.768Z,21.655
2022-09-14T02:45:09.604Z,21.649
2022-09-14T02:46:08.692Z,21.666
2022-09-14T02:47:09.001Z,21.643
2022-09-14T02:48:07.927Z,21.621
2022-09-14T02:49:08.025Z,21.575
2022-09-14T02:50:08.758Z,21.54
2022-09-14T02:51:09.134Z,21.52
2022-09-14T02:52:08.866Z,21.515
2022-09-14T02:53:08.268Z,21.51
2022-09-14T02:54:08.499Z,21.51
2022-09-14T02:55:08.990Z,21.485
2022-09-14T02:56:08.250Z,21.48
2022-09-14T02:57:09.549Z,21.49
2022-09-14T02:58:08.746Z,21.46
2022-09-14T02:59:07.512Z,21.445
2022-09-14T03:00:12.105Z,21.435
2022-09-14T03:01:08.230Z,21.425
2022-09-14T03:02:09.049Z,21.405
2022-09-14T03:03:08.430Z,21.4
2022-09-14T03:04:08.515Z,21.38
2022-09-14T03:05:09.032Z,21.356
2022-09-14T03:06:08.145Z,21.339
2022-09-14T03:07:09.558Z,21.327
2022-09-14T03:08:08.522Z,21.333
2022-09-14T03:09:07.592Z,21.3216
2022-09-14T03:10:11.517Z,21.3
2022-09-14T03:11:08.682Z,21.3
2022-09-14T03:12:09.495Z,21.3158
2022-09-14T03:13:08.720Z,21.285
2022-09-14T03:14:07.528Z,21.245
2022-09-14T03:15:08.784Z,21.25
2022-09-14T03:16:08.343Z,21.25
2022-09-14T03:17:10.919Z,21.235
2022-09-14T03:18:12.281Z,21.22
2022-09-14T03:19:07.804Z,21.205
2022-09-14T03:20:07.915Z,21.225
2022-09-14T03:21:08.745Z,21.235
2022-09-14T03:22:08.638Z,21.22
2022-09-14T03:23:08.084Z,21.21
2022-09-14T03:24:07.914Z,21.21
2022-09-14T03:25:08.735Z,21.22
2022-09-14T03:26:10.822Z,21.235
2022-09-14T03:27:10.829Z,21.26
2022-09-14T03:28:11.099Z,21.27
2022-09-14T03:29:11.361Z,21.29
2022-09-14T03:30:08.793Z,21.311
2022-09-14T03:31:11.620Z,21.339
2022-09-14T03:32:08.565Z,21.333
2022-09-14T03:33:09.072Z,21.362
2022-09-14T03:34:09.537Z,21.356
2022-09-14T03:35:11.455Z,21.344
2022-09-14T03:36:09.919Z,21.356
2022-09-14T03:37:09.353Z,21.362
2022-09-14T03:38:11.031Z,21.35
2022-09-14T03:39:07.720Z,21.3741
2022-09-14T03:40:10.718Z,21.367
2022-09-14T03:41:11.508Z,21.356
2022-09-14T03:42:08.552Z,21.38
2022-09-14T03:43:11.364Z,21.395
2022-09-14T03:44:07.427Z,21.42
2022-09-14T03:45:09.245Z,21.425
2022-09-14T03:46:08.982Z,21.42
2022-09-14T03:47:11.609Z,21.435
2022-09-14T03:48:11.724Z,21.41
2022-09-14T03:49:08.196Z,21.395
2022-09-14T03:50:09.099Z,21.395
2022-09-14T03:51:08.629Z,21.3741
2022-09-14T03:52:08.331Z,21.333
2022-09-14T03:53:08.857Z,21.3158
2022-09-14T03:54:07.223Z,21.295
2022-09-14T03:55:09.457Z,21.275
2022-09-14T03:56:08.756Z,21.27
2022-09-14T03:57:08.448Z,21.2554
2022-09-14T03:58:11.194Z,21.2638
2022-09-14T03:59:08.344Z,21.265
2022-09-14T04:00:08.702Z,21.265
2022-09-14T04:01:08.414Z,21.2718
2022-09-14T04:02:08.504Z,21.273
2022-09-14T04:03:08.718Z,21.2663
2022-09-14T04:04:08.429Z,21.273
2022-09-14T04:05:09.414Z,21.275
2022-09-14T04:06:08.495Z,21.2881
2022-09-14T04:07:11.887Z,21.2915
2022-09-14T04:08:08.740Z,21.2881
2022-09-14T04:09:09.211Z,21.31
2022-09-14T04:10:09.330Z,21.3207
2022-09-14T04:11:09.261Z,21.317
2022-09-14T04:12:08.394Z,21.3158
2022-09-14T04:13:09.557Z,21.333
2022-09-14T04:14:09.678Z,21.3158
2022-09-14T04:15:08.967Z,21.3158
2022-09-14T04:16:09.274Z,21.3108
2022-09-14T04:17:12.443Z,21.29
2022-09-14T04:18:08.268Z,21.275
2022-09-14T04:19:08.171Z,21.25
2022-09-14T04:20:08.761Z,21.255
2022-09-14T04:21:09.706Z,21.24
2022-09-14T04:22:08.799Z,21.225
2022-09-14T04:23:08.646Z,21.1841
2022-09-14T04:24:15.230Z,21.166
2022-09-14T04:25:08.978Z,21.1
2022-09-14T04:26:09.253Z,21.08
2022-09-14T04:27:08.564Z,21.035
2022-09-14T04:28:20.175Z,20.985
2022-09-14T04:29:07.997Z,20.94
2022-09-14T04:30:08.228Z,20.91
2022-09-14T04:31:11.554Z,20.935
2022-09-14T04:32:07.822Z,20.92
2022-09-14T04:33:08.741Z,20.88
2022-09-14T04:34:07.923Z,20.856
2022-09-14T04:35:09.517Z,20.845
2022-09-14T04:36:08.857Z,20.862
2022-09-14T04:37:08.279Z,20.839
2022-09-14T04:38:08.655Z,20.862
2022-09-14T04:39:07.934Z,20.885
2022-09-14T04:40:07.929Z,20.89
2022-09-14T04:41:08.633Z,20.91
2022-09-14T04:42:11.297Z,20.895
2022-09-14T04:43:08.593Z,20.885
2022-09-14T04:44:07.441Z,20.885
2022-09-14T04:45:07.716Z,20.845
2022-09-14T04:46:08.383Z,20.834
2022-09-14T04:47:08.566Z,20.785
2022-09-14T04:48:09.280Z,20.785
2022-09-14T04:49:08.207Z,20.78
2022-09-14T04:50:08.448Z,20.795
2022-09-14T04:51:09.184Z,20.765
2022-09-14T04:52:09.110Z,20.75
2022-09-14T04:53:08.888Z,20.74
2022-09-14T04:54:09.181Z,20.725
2022-09-14T04:55:08.166Z,20.735
2022-09-14T04:56:09.338Z,20.715
2022-09-14T04:57:09.475Z,20.666
2022-09-14T04:58:08.397Z,20.621
2022-09-14T04:59:10.519Z,20.615
2022-09-14T05:00:08.909Z,20.61
2022-09-14T05:01:12.089Z,20.61
2022-09-14T05:02:07.947Z,20.61
2022-09-14T05:03:09.007Z,20.6208
2022-09-14T05:04:07.455Z,20.615
2022-09-14T05:05:11.619Z,20.61
2022-09-14T05:06:07.905Z,20.595
2022-09-14T05:07:08.759Z,20.615
2022-09-14T05:08:08.824Z,20.605
2022-09-14T05:09:08.454Z,20.61
2022-09-14T05:10:08.628Z,20.62
2022-09-14T05:11:10.585Z,20.637
2022-09-14T05:12:08.815Z,20.637
2022-09-14T05:13:10.927Z,20.649
2022-09-14T05:14:07.700Z,20.649
2022-09-14T05:15:10.692Z,20.666
2022-09-14T05:16:08.014Z,20.6841
2022-09-14T05:17:10.618Z,20.6783
2022-09-14T05:18:08.524Z,20.605
2022-09-14T05:19:07.604Z,20.56
2022-09-14T05:20:08.507Z,20.53
2022-09-14T05:21:12.944Z,20.505
2022-09-14T05:22:07.989Z,20.495
2022-09-14T05:23:09.770Z,20.5
2022-09-14T05:24:08.315Z,20.485
2022-09-14T05:25:12.328Z,20.48
2022-09-14T05:26:08.710Z,20.44
2022-09-14T05:27:12.701Z,20.4
2022-09-14T05:28:08.444Z,20.395
2022-09-14T05:29:09.096Z,20.4
2022-09-14T05:30:09.297Z,20.405
2022-09-14T05:31:09.716Z,20.425
2022-09-14T05:32:08.521Z,20.45
2022-09-14T05:33:08.402Z,20.44
2022-09-14T05:34:09.113Z,20.405
2022-09-14T05:35:09.318Z,20.42
2022-09-14T05:36:09.225Z,20.3909
2022-09-14T05:37:10.082Z,20.3846
2022-09-14T05:38:12.330Z,20.385
2022-09-14T05:39:09.004Z,20.42
2022-09-14T05:40:09.483Z,20.4345
2022-09-14T05:41:09.459Z,20.467
2022-09-14T05:42:08.885Z,20.5
2022-09-14T05:43:09.009Z,20.53
2022-09-14T05:44:09.547Z,20.57
2022-09-14T05:45:09.427Z,20.61
2022-09-14T05:46:08.782Z,20.6316
2022-09-14T05:47:09.534Z,20.66
2022-09-14T05:48:08.840Z,20.705
2022-09-14T05:49:08.444Z,20.735
2022-09-14T05:50:09.326Z,20.77
2022-09-14T05:51:08.376Z,20.785
2022-09-14T05:52:09.718Z,20.81
2022-09-14T05:53:08.570Z,20.839
2022-09-14T05:54:07.595Z,20.8683
2022-09-14T05:55:09.334Z,20.895
2022-09-14T05:56:08.276Z,20.935
2022-09-14T05:57:08.424Z,20.93
2022-09-14T05:58:09.352Z,20.965
2022-09-14T05:59:07.680Z,20.98
2022-09-14T06:00:09.351Z,21
2022-09-14T06:01:09.121Z,21.005
2022-09-14T06:02:08.606Z,21.015
2022-09-14T06:03:08.759Z,21.035
2022-09-14T06:04:09.533Z,21.025
2022-09-14T06:05:09.067Z,21.05
2022-09-14T06:06:09.109Z,21.05
2022-09-14T06:07:18.551Z,21.04
2022-09-14T06:08:09.117Z,21.045
2022-09-14T06:09:09.231Z,21
2022-09-14T06:10:09.123Z,21.01
2022-09-14T06:11:11.005Z,21.005
2022-09-14T06:12:08.413Z,20.98
2022-09-14T06:13:09.423Z,20.965
2022-09-14T06:14:08.023Z,20.94
2022-09-14T06:15:09.481Z,20.945
2022-09-14T06:16:08.932Z,20.935
2022-09-14T06:17:08.757Z,20.935
2022-09-14T06:18:08.643Z,20.91
2022-09-14T06:19:08.594Z,20.93
2022-09-14T06:20:09.277Z,20.955
2022-09-14T06:21:09.276Z,20.96
2022-09-14T06:22:11.841Z,20.94
2022-09-14T06:23:09.033Z,20.93
2022-09-14T06:24:07.910Z,20.8791
2022-09-14T06:25:11.734Z,20.839
2022-09-14T06:26:08.833Z,20.862
2022-09-14T06:27:12.269Z,20.845
2022-09-14T06:28:08.912Z,20.8158
2022-09-14T06:29:09.587Z,20.8
2022-09-14T06:30:09.153Z,20.795
2022-09-14T06:31:08.701Z,20.755
2022-09-14T06:32:08.739Z,20.72
2022-09-14T06:33:11.923Z,20.6891
2022-09-14T06:34:11.656Z,20.666
2022-09-14T06:35:12.460Z,20.6316
2022-09-14T06:36:08.557Z,20.62
2022-09-14T06:37:09.347Z,20.6208
2022-09-14T06:38:08.871Z,20.61
2022-09-14T06:39:11.692Z,20.6208
2022-09-14T06:40:08.412Z,20.615
2022-09-14T06:41:11.876Z,20.615
2022-09-14T06:42:09.054Z,20.59
2022-09-14T06:43:09.777Z,20.57
2022-09-14T06:44:09.050Z,20.595
2022-09-14T06:45:09.535Z,20.595
2022-09-14T06:46:09.104Z,20.59
2022-09-14T06:47:08.616Z,20.605
2022-09-14T06:48:12.736Z,20.6208
2022-09-14T06:49:09.266Z,20.6258
2022-09-14T06:50:09.019Z,20.615
2022-09-14T06:51:08.937Z,20.637
2022-09-14T06:52:09.421Z,20.605
2022-09-14T06:53:12.295Z,20.585
2022-09-14T06:54:09.131Z,20.59
2022-09-14T06:55:09.020Z,20.585
2022-09-14T06:56:09.918Z,20.565
2022-09-14T06:57:09.225Z,20.535
2022-09-14T06:58:08.610Z,20.53
2022-09-14T06:59:09.483Z,20.525
2022-09-14T07:00:08.863Z,20.54
2022-09-14T07:01:08.788Z,20.5654
2022-09-14T07:02:09.317Z,20.569
2022-09-14T07:03:09.288Z,20.595
2022-09-14T07:04:09.311Z,20.59
2022-09-14T07:05:09.402Z,20.6
2022-09-14T07:06:08.846Z,20.5981
2022-09-14T07:07:09.723Z,20.583
2022-09-14T07:08:12.223Z,20.57
2022-09-14T07:09:09.259Z,20.549
2022-09-14T07:10:09.558Z,20.56
2022-09-14T07:11:09.540Z,20.57
2022-09-14T07:12:09.225Z,20.5381
2022-09-14T07:13:09.727Z,20.5
2022-09-14T07:14:09.066Z,20.5054
2022-09-14T07:15:09.982Z,20.4538
2022-09-14T07:16:09.127Z,20.4018
2022-09-14T07:17:12.330Z,20.385
2022-09-14T07:18:11.527Z,20.39
2022-09-14T07:19:09.680Z,20.373
2022-09-14T07:20:09.196Z,20.316
2022-09-14T07:21:08.916Z,20.305
2022-09-14T07:22:09.271Z,20.29
2022-09-14T07:23:09.032Z,20.29
2022-09-14T07:24:09.230Z,20.265
2022-09-14T07:25:09.054Z,20.3216
2022-09-14T07:26:09.659Z,20.3108
2022-09-14T07:27:09.353Z,20.327
2022-09-14T07:28:08.627Z,20.28
2022-09-14T07:29:09.540Z,20.31
2022-09-14T07:30:11.740Z,20.3158
2022-09-14T07:31:09.862Z,20.328
2022-09-14T07:32:09.045Z,20.29
2022-09-14T07:33:09.734Z,20.26
2022-09-14T07:34:11.359Z,20.22
2022-09-14T07:35:09.220Z,20.1891
2022-09-14T07:36:08.837Z,20.166
2022-09-14T07:37:09.875Z,20.172
2022-09-14T07:38:11.852Z,20.166
2022-09-14T07:39:08.862Z,20.149
2022-09-14T07:40:08.939Z,20.166
2022-09-14T07:41:12.423Z,20.205
2022-09-14T07:42:08.905Z,20.245
2022-09-14T07:43:08.866Z,20.265
2022-09-14T07:44:09.006Z,20.25
2022-09-14T07:45:09.288Z,20.285
2022-09-14T07:46:08.539Z,20.31
2022-09-14T07:47:09.062Z,20.327
2022-09-14T07:48:10.644Z,20.362
2022-09-14T07:49:08.675Z,20.395
2022-09-14T07:50:09.095Z,20.395
2022-09-14T07:51:08.759Z,20.405
2022-09-14T07:52:09.390Z,20.43
2022-09-14T07:53:09.391Z,20.44
2022-09-14T07:54:08.900Z,20.45
2022-09-14T07:55:09.357Z,20.46
2022-09-14T07:56:09.181Z,20.465
2022-09-14T07:57:08.855Z,20.48
2022-09-14T07:58:09.558Z,20.51
2022-09-14T07:59:34.349Z,20.51
2022-09-14T08:00:08.754Z,20.515
2022-09-14T08:01:09.697Z,20.535
2022-09-14T08:02:12.549Z,20.55
2022-09-14T08:03:09.603Z,20.55
2022-09-14T08:04:12.144Z,20.58
2022-09-14T08:05:09.236Z,20.56
2022-09-14T08:06:08.989Z,20.51
2022-09-14T08:07:09.458Z,20.48
2022-09-14T08:08:09.397Z,20.475
2022-09-14T08:09:09.035Z,20.475
2022-09-14T08:10:09.217Z,20.485
2022-09-14T08:11:09.103Z,20.5
2022-09-14T08:12:08.602Z,20.53
2022-09-14T08:13:09.127Z,20.555
2022-09-14T08:14:09.305Z,20.55
2022-09-14T08:15:11.790Z,20.54
2022-09-14T08:16:08.767Z,20.53
2022-09-14T08:17:09.308Z,20.535
2022-09-14T08:18:09.148Z,20.55
2022-09-14T08:19:09.268Z,20.545
2022-09-14T08:20:09.892Z,20.565
2022-09-14T08:21:09.249Z,20.55
2022-09-14T08:22:08.874Z,20.555
2022-09-14T08:23:13.017Z,20.56
2022-09-14T08:24:09.031Z,20.535
2022-09-14T08:25:12.048Z,20.535
2022-09-14T08:26:09.438Z,20.53
2022-09-14T08:27:09.295Z,20.53
2022-09-14T08:28:08.954Z,20.525
2022-09-14T08:29:12.177Z,20.515
2022-09-14T08:30:08.613Z,20.495
2022-09-14T08:31:09.295Z,20.465
2022-09-14T08:32:08.347Z,20.48
2022-09-14T08:33:12.243Z,20.445
2022-09-14T08:34:08.655Z,20.4127
2022-09-14T08:35:09.291Z,20.403
2022-09-14T08:36:08.960Z,20.385
2022-09-14T08:37:09.743Z,20.384
2022-09-14T08:38:09.673Z,20.356
2022-09-14T08:39:08.259Z,20.3672
2022-09-14T08:40:08.871Z,20.345
2022-09-14T08:41:09.120Z,20.353
2022-09-14T08:42:08.771Z,20.329
2022-09-14T08:43:09.339Z,20.35
2022-09-14T08:44:08.946Z,20.333
2022-09-14T08:45:09.973Z,20.331
2022-09-14T08:46:09.422Z,20.3109
2022-09-14T08:47:08.944Z,20.31
2022-09-14T08:48:08.908Z,20.2915
2022-09-14T08:49:09.362Z,20.2881
2022-09-14T08:50:09.107Z,20.255
2022-09-14T08:51:08.933Z,20.22
2022-09-14T08:52:09.009Z,20.2
2022-09-14T08:53:10.096Z,20.1891
2022-09-14T08:54:09.432Z,20.1841
2022-09-14T08:55:09.205Z,20.149
2022-09-14T08:56:09.749Z,20.166
2022-09-14T08:57:09.218Z,20.16
2022-09-14T08:58:08.966Z,20.1841
2022-09-14T08:59:08.663Z,20.2
2022-09-14T09:00:08.513Z,20.194
2022-09-14T09:01:09.545Z,20.215
2022-09-14T09:02:09.319Z,20.23
2022-09-14T09:03:09.378Z,20.215
2022-09-14T09:04:08.595Z,20.255
2022-09-14T09:05:11.945Z,20.26
2022-09-14T09:06:11.815Z,20.27
2022-09-14T09:07:09.002Z,20.28
2022-09-14T09:08:08.635Z,20.265
2022-09-14T09:09:08.916Z,20.255
2022-09-14T09:10:09.490Z,20.24
2022-09-14T09:11:09.216Z,20.23
2022-09-14T09:12:11.755Z,20.23
2022-09-14T09:13:08.885Z,20.205
2022-09-14T09:14:09.360Z,20.172
2022-09-14T09:15:09.638Z,20.137
2022-09-14T09:16:12.840Z,20.1316
2022-09-14T09:17:12.115Z,20.085
2022-09-14T09:18:09.755Z,20.06
2022-09-14T09:19:09.457Z,20.04
2022-09-14T09:20:08.782Z,20.02
2022-09-14T09:21:09.617Z,20.02
2022-09-14T09:22:09.273Z,20.04
2022-09-14T09:23:08.899Z,20.025
2022-09-14T09:24:08.606Z,20.035
2022-09-14T09:25:12.136Z,20.025
2022-09-14T09:26:09.241Z,20.055
2022-09-14T09:27:10.447Z,20.055
2022-09-14T09:28:08.788Z,20.075
2022-09-14T09:29:08.105Z,20.1
2022-09-14T09:30:09.186Z,20.11
2022-09-14T09:31:14.585Z,20.12
2022-09-14T09:32:09.535Z,20.12
2022-09-14T09:33:09.114Z,20.137
2022-09-14T09:34:11.986Z,20.149
2022-09-14T09:35:11.931Z,20.143
2022-09-14T09:36:11.642Z,20.172
2022-09-14T09:37:09.254Z,20.155
2022-09-14T09:38:08.550Z,20.143
2022-09-14T09:39:09.688Z,20.155
2022-09-14T09:40:11.968Z,20.166
2022-09-14T09:41:10.979Z,20.194
2022-09-14T09:42:08.480Z,20.205
2022-09-14T09:43:09.136Z,20.23
2022-09-14T09:44:07.823Z,20.25
2022-09-14T09:45:09.293Z,20.25
2022-09-14T09:46:08.773Z,20.245
2022-09-14T09:47:12.436Z,20.27
2022-09-14T09:48:09.018Z,20.255
2022-09-14T09:49:12.589Z,20.215
2022-09-14T09:50:11.769Z,20.1891
2022-09-14T09:51:09.305Z,20.194
2022-09-14T09:52:08.461Z,20.1783
2022-09-14T09:53:08.473Z,20.166
2022-09-14T09:54:09.153Z,20.16
2022-09-14T09:55:08.938Z,20.165
2022-09-14T09:56:09.110Z,20.19
2022-09-14T09:57:12.613Z,20.2
2022-09-14T09:58:08.872Z,20.21
2022-09-14T09:59:09.015Z,20.26
2022-09-14T10:00:08.909Z,20.265
2022-09-14T10:01:17.046Z,20.25
2022-09-14T10:02:08.665Z,20.27
2022-09-14T10:03:12.121Z,20.27
2022-09-14T10:04:10.389Z,20.25
2022-09-14T10:05:09.204Z,20.255
2022-09-14T10:06:09.237Z,20.265
2022-09-14T10:07:09.255Z,20.285
2022-09-14T10:08:11.669Z,20.3
2022-09-14T10:09:10.418Z,20.327
2022-09-14T10:10:09.065Z,20.362
2022-09-14T10:11:09.353Z,20.39
2022-09-14T10:12:08.571Z,20.4181
2022-09-14T10:13:09.469Z,20.407
2022-09-14T10:14:07.799Z,20.4181
2022-09-14T10:15:08.676Z,20.415
2022-09-14T10:16:09.351Z,20.42
2022-09-14T10:17:09.125Z,20.425
2022-09-14T10:18:08.077Z,20.425
2022-09-14T10:19:09.264Z,20.415
2022-09-14T10:20:09.130Z,20.41
2022-09-14T10:21:08.803Z,20.405
2022-09-14T10:22:09.290Z,20.405
2022-09-14T10:23:11.963Z,20.3791
2022-09-14T10:24:08.858Z,20.3683
2022-09-14T10:25:08.926Z,20.385
2022-09-14T10:26:08.811Z,20.356
2022-09-14T10:27:09.024Z,20.356
2022-09-14T10:28:08.107Z,20.3158
2022-09-14T10:29:09.494Z,20.327
2022-09-14T10:30:08.429Z,20.333
2022-09-14T10:31:12.066Z,20.305
2022-09-14T10:32:08.970Z,20.3
2022-09-14T10:33:08.772Z,20.3
2022-09-14T10:34:08.917Z,20.29
2022-09-14T10:35:09.295Z,20.285
2022-09-14T10:36:08.976Z,20.27
2022-09-14T10:37:08.715Z,20.24
2022-09-14T10:38:09.667Z,20.22
2022-09-14T10:39:08.412Z,20.183
2022-09-14T10:40:12.620Z,20.155
2022-09-14T10:41:08.866Z,20.137
2022-09-14T10:42:08.857Z,20.121
2022-09-14T10:43:12.422Z,20.085
2022-09-14T10:44:10.326Z,20.06
2022-09-14T10:45:08.676Z,20.05
2022-09-14T10:46:09.308Z,20.035
2022-09-14T10:47:09.091Z,20.01
2022-09-14T10:48:08.981Z,20.005
2022-09-14T10:49:08.074Z,20.015
2022-09-14T10:50:08.817Z,19.995
2022-09-14T10:51:09.689Z,20
2022-09-14T10:52:09.243Z,20
2022-09-14T10:53:09.242Z,20.005
2022-09-14T10:54:08.912Z,19.995
2022-09-14T10:55:12.113Z,19.98
2022-09-14T10:56:12.142Z,19.965
2022-09-14T10:57:09.431Z,19.965
2022-09-14T10:58:14.471Z,19.93
2022-09-14T10:59:10.333Z,19.89
2022-09-14T11:00:08.909Z,19.883
2022-09-14T11:01:09.304Z,19.8683
2022-09-14T11:02:09.363Z,19.862
2022-09-14T11:03:08.815Z,19.885
2022-09-14T11:04:08.702Z,19.895
2022-09-14T11:05:09.262Z,19.92
2022-09-14T11:06:11.218Z,19.935
2022-09-14T11:07:08.622Z,19.955
2022-09-14T11:08:09.036Z,19.995
2022-09-14T11:09:08.500Z,20.005
2022-09-14T11:10:11.795Z,19.98
2022-09-14T11:11:11.451Z,19.98
2022-09-14T11:12:09.294Z,19.95
2022-09-14T11:13:08.600Z,19.955
2022-09-14T11:14:07.590Z,19.955
2022-09-14T11:15:09.544Z,19.975
2022-09-14T11:16:12.014Z,19.97
2022-09-14T11:17:08.820Z,19.99
2022-09-14T11:18:11.162Z,20
2022-09-14T11:19:08.082Z,20.005
2022-09-14T11:20:08.123Z,20.02
2022-09-14T11:21:11.967Z,20.025
2022-09-14T11:22:09.468Z,20.02
2022-09-14T11:23:12.223Z,20.035
2022-09-14T11:24:09.254Z,20.01
2022-09-14T11:25:09.399Z,19.99
2022-09-14T11:26:12.343Z,20
2022-09-14T11:27:08.643Z,20.01
2022-09-14T11:28:08.811Z,20.03
2022-09-14T11:29:08.246Z,20.07
2022-09-14T11:30:08.389Z,20.095
2022-09-14T11:31:09.833Z,20.143
2022-09-14T11:32:20.810Z,20.172
2022-09-14T11:33:08.920Z,20.155
2022-09-14T11:34:07.808Z,20.21
2022-09-14T11:35:08.700Z,20.2227
2022-09-14T11:36:09.498Z,20.25
2022-09-14T11:37:09.083Z,20.295
2022-09-14T11:38:08.712Z,20.317
2022-09-14T11:39:10.592Z,20.342
2022-09-14T11:40:09.907Z,20.385
2022-09-14T11:41:09.058Z,20.435
2022-09-14T11:42:08.653Z,20.4836
2022-09-14T11:43:09.721Z,20.5184
2022-09-14T11:44:08.056Z,20.5709
2022-09-14T11:45:07.818Z,20.61
2022-09-14T11:46:09.607Z,20.657
2022-09-14T11:47:08.291Z,20.7118
2022-09-14T11:48:38.266Z,20.765
2022-09-14T11:49:08.554Z,20.785
2022-09-14T11:50:08.339Z,20.816
2022-09-14T11:51:08.812Z,20.823
2022-09-14T11:52:09.160Z,20.88
2022-09-14T11:53:08.712Z,20.894
2022-09-14T11:54:08.034Z,20.91
2022-09-14T11:55:08.960Z,20.92
2022-09-14T11:56:07.868Z,20.945
2022-09-14T11:57:09.618Z,20.96
2022-09-14T11:58:08.804Z,20.995
2022-09-14T11:59:07.987Z,21.06
2022-09-14T12:00:09.158Z,21.035
2022-09-14T12:01:08.428Z,21.035
2022-09-14T12:02:09.401Z,21.02
2022-09-14T12:03:12.445Z,21.035
2022-09-14T12:04:11.116Z,21.04
2022-09-14T12:05:09.538Z,21.105
2022-09-14T12:06:08.825Z,21.11
2022-09-14T12:07:09.089Z,21.1258
2022-09-14T12:08:09.807Z,21.105
2022-09-14T12:09:08.567Z,21.07
2022-09-14T12:10:08.045Z,21.055
2022-09-14T12:11:09.445Z,21.03
2022-09-14T12:12:08.881Z,21.015
2022-09-14T12:13:09.752Z,20.995
2022-09-14T12:14:07.991Z,21.005
2022-09-14T12:15:08.390Z,20.99
2022-09-14T12:16:11.248Z,20.995
2022-09-14T12:17:35.250Z,20.99
2022-09-14T12:18:09.402Z,20.965
2022-09-14T12:19:08.072Z,20.95
2022-09-14T12:20:09.567Z,20.915
2022-09-14T12:21:09.109Z,20.905
2022-09-14T12:22:08.631Z,20.8741
2022-09-14T12:23:09.221Z,20.856
2022-09-14T12:24:08.708Z,20.8158
2022-09-14T12:25:08.476Z,20.795
2022-09-14T12:26:08.756Z,20.755
2022-09-14T12:27:08.997Z,20.715
2022-09-14T12:28:09.639Z,20.71
2022-09-14T12:29:08.476Z,20.6783
2022-09-14T12:30:08.504Z,20.6783
2022-09-14T12:31:09.567Z,20.694
2022-09-14T12:32:09.134Z,20.695
2022-09-14T12:33:09.994Z,20.715
2022-09-14T12:34:07.405Z,20.76
2022-09-14T12:35:09.185Z,20.77
2022-09-14T12:36:12.340Z,20.735